Wolgastern — CQLH — position and weather

sailwx.info

Track history (hours):
 
Tides and Currents Weather Stations Pressure Air Temp Water Temp Dewpoint Dewpoint Depression Visibility Wind Speed Wind Dir Waves Ship Positions

Wolgastern

Last reported at 2015-Jan-27 10:33 UTC. Time now 2015-Jan-27 12:27 UTC.
Position N 55°16' E 014°21'.

Length 162 m; draft 6.6 m.

Type: Ship. MMSI: 255804950.

Date/timePositionNaut miles runAvg speedWind from/ knotsBaromVisibWave heightAir tempDewpointWater temp
2015-Jan-27 10:33N 55°16' E 014°21'1313.3
2015-Jan-27 09:33N 55°26' E 014°36'1313.2
2015-Jan-27 08:33N 55°33' E 014°56'  
2015-Jan-18 16:13N 55°36' E 015°27'812.2
2015-Jan-18 15:34N 55°33' E 015°14'1212.3
2015-Jan-18 14:33N 55°28' E 014°54'1212.0
2015-Jan-18 13:34N 55°22' E 014°36'1212.2
2015-Jan-18 12:34N 55°12' E 014°23'1212.2
2015-Jan-18 11:34N 55°02' E 014°10'1211.9
2015-Jan-18 10:34N 54°58' E 013°51'1211.9
2015-Jan-18 09:33N 54°54' E 013°31'1411.6
2015-Jan-18 08:21N 54°50' E 013°08'911.4
2015-Jan-18 07:32N 54°47' E 012°53'1211.5
2015-Jan-18 06:31N 54°41' E 012°35'1111.6
2015-Jan-18 05:33N 54°35' E 012°19'1010.4
2015-Jan-18 04:33N 54°26' E 012°11'1211.7
2015-Jan-18 03:34N 54°25' E 011°51'1211.8
2015-Jan-18 02:33N 54°29' E 011°32'1212.2
2015-Jan-18 01:33N 54°35' E 011°13'1312.0
2015-Jan-18 00:31N 54°41' E 010°54'119 9.7
2015-Jan-17 12:10N 56°38' E 011°36'610.1
2015-Jan-17 11:33N 56°42' E 011°45'9 8.8
2015-Jan-17 10:33N 56°50' E 011°48'  
Track history (hours):
 
Tides and Currents Weather Stations Pressure Air Temp Water Temp Dewpoint Dewpoint Depression Visibility Wind Speed Wind Dir Waves Ship Positions

Wolgastern

Last reported at 2015-Jan-27 10:33 UTC. Time now 2015-Jan-27 12:27 UTC.
Position N 55°16' E 014°21'.

Length 162 m; draft 6.6 m.

Type: Ship. MMSI: 255804950.

Date/timePositionNaut miles runAvg speedWind from/ knotsBaromVisibWave heightAir tempDewpointWater temp
2015-Jan-27 10:33N 55°16' E 014°21'1313.3
2015-Jan-27 09:33N 55°26' E 014°36'1313.2
2015-Jan-27 08:33N 55°33' E 014°56'  
2015-Jan-18 16:13N 55°36' E 015°27'812.2
2015-Jan-18 15:34N 55°33' E 015°14'1212.3
2015-Jan-18 14:33N 55°28' E 014°54'1212.0
2015-Jan-18 13:34N 55°22' E 014°36'1212.2
2015-Jan-18 12:34N 55°12' E 014°23'1212.2
2015-Jan-18 11:34N 55°02' E 014°10'1211.9
2015-Jan-18 10:34N 54°58' E 013°51'1211.9
2015-Jan-18 09:33N 54°54' E 013°31'1411.6
2015-Jan-18 08:21N 54°50' E 013°08'911.4
2015-Jan-18 07:32N 54°47' E 012°53'1211.5
2015-Jan-18 06:31N 54°41' E 012°35'1111.6
2015-Jan-18 05:33N 54°35' E 012°19'1010.4
2015-Jan-18 04:33N 54°26' E 012°11'1211.7
2015-Jan-18 03:34N 54°25' E 011°51'1211.8
2015-Jan-18 02:33N 54°29' E 011°32'1212.2
2015-Jan-18 01:33N 54°35' E 011°13'1312.0
2015-Jan-18 00:31N 54°41' E 010°54'119 9.7
2015-Jan-17 12:10N 56°38' E 011°36'610.1
2015-Jan-17 11:33N 56°42' E 011°45'9 8.8
2015-Jan-17 10:33N 56°50' E 011°48'  

Dump ship's entire track history